Terminal Aerodrome Forecast
Issued by NWS

Home | Current Version | Previous Version | Text Only | Print | Product List | Glossary On
Versions: 1 2 3 4 5 6 7 8 9 10 11 12 13 14 15 16
000
FTUS42 KMHX 261143
TAFISO
TAF
KISO 261143Z 2612/2712 02005KT 2SM BR VCSH OVC002
     FM261300 03008KT 4SM BR VCSH OVC003
     FM261500 04005KT P6SM OVC007
     FM261800 02006KT P6SM OVC015
     FM270000 VRB03KT P6SM BKN050
      AMD LTD TO CLD VIS AND WIND=

USA.gov is the U.S. government's official web portal to all federal, state and local government web resources and services.